Time;durP1;ratioP1;P1;durP2;ratioP2;P2;SDS_P1;SDS_P2;PMS_P1;PMS_P2;Temp;Humidity;BMP_temperature;BMP_pressure;BME280_temperature;BME280_humidity;BME280_pressure;Samples;Min_cycle;Max_cycle;Signal;HPM_P1;HPM_P2
2021/12/03 00:02:19;;;;;;;9.15;4.28;;;2.00;99.90;;;;;;5033518;28;20052;-51
2021/12/03 00:04:44;;;;;;;8.90;4.25;;;2.00;99.90;;;;;;5033524;28;20468;-49
2021/12/03 00:07:10;;;;;;;12.43;4.78;;;2.00;99.90;;;;;;5032426;28;20021;-51
2021/12/03 00:09:36;;;;;;;11.55;4.97;;;1.90;99.90;;;;;;5033464;28;20392;-50
2021/12/03 00:12:06;;;;;;;9.82;4.97;;;1.90;99.90;;;;;;5032436;28;20025;-49
2021/12/03 00:14:33;;;;;;;15.60;5.07;;;1.90;99.90;;;;;;5033326;28;20017;-48
2021/12/03 00:16:59;;;;;;;10.38;4.65;;;1.80;99.90;;;;;;5032404;28;20037;-52
2021/12/03 00:19:24;;;;;;;8.40;4.57;;;1.80;99.90;;;;;;5032638;28;20047;-51
2021/12/03 00:21:50;;;;;;;8.70;4.88;;;1.80;99.90;;;;;;5031937;28;20026;-49
2021/12/03 00:24:16;;;;;;;9.82;4.75;;;1.80;99.90;;;;;;5032030;28;20035;-49
2021/12/03 00:26:42;;;;;;;9.45;4.35;;;1.70;99.90;;;;;;5033015;28;20026;-48
2021/12/03 00:29:08;;;;;;;14.38;4.95;;;1.70;99.90;;;;;;5033193;28;20017;-50
2021/12/03 00:31:34;;;;;;;10.50;4.97;;;1.60;99.90;;;;;;5033510;28;20013;-50
2021/12/03 00:33:59;;;;;;;9.00;4.10;;;1.70;99.90;;;;;;5033115;28;20024;-49
2021/12/03 00:36:27;;;;;;;10.40;4.93;;;1.60;99.90;;;;;;5031909;28;20025;-49
2021/12/03 00:38:56;;;;;;;8.40;4.28;;;1.60;99.90;;;;;;5033115;28;20052;-50
2021/12/03 00:41:22;;;;;;;10.38;4.28;;;1.60;99.90;;;;;;5033094;28;20083;-52
2021/12/03 00:43:52;;;;;;;7.40;4.00;;;1.60;99.90;;;;;;5033053;28;20159;-49
2021/12/03 00:46:19;;;;;;;6.78;3.35;;;1.60;99.90;;;;;;5031847;28;20026;-49
2021/12/03 00:48:47;;;;;;;7.35;3.83;;;1.70;99.90;;;;;;5033056;28;20032;-48
2021/12/03 00:51:13;;;;;;;7.13;3.75;;;1.70;99.90;;;;;;5031756;28;20033;-50
2021/12/03 00:53:39;;;;;;;6.90;4.00;;;1.70;99.90;;;;;;5031911;28;20025;-51
2021/12/03 00:56:08;;;;;;;9.50;4.18;;;1.80;99.90;;;;;;5032979;28;20426;-48
2021/12/03 00:58:34;;;;;;;8.63;4.57;;;1.90;99.90;;;;;;5032898;28;20025;-52
2021/12/03 01:01:00;;;;;;;8.52;4.28;;;1.80;99.90;;;;;;5032950;28;20144;-51
2021/12/03 01:03:27;;;;;;;9.48;3.85;;;1.80;99.90;;;;;;5032843;28;20113;-49
2021/12/03 01:05:54;;;;;;;9.52;4.32;;;1.70;99.90;;;;;;5033141;28;20061;-50
2021/12/03 01:08:20;;;;;;;6.65;3.55;;;1.70;99.90;;;;;;5033615;28;20042;-56
2021/12/03 01:10:46;;;;;;;8.82;4.13;;;1.60;99.90;;;;;;5031640;28;20079;-52
2021/12/03 01:13:11;;;;;;;7.55;3.83;;;1.60;99.90;;;;;;5031470;28;20071;-56
2021/12/03 01:15:38;;;;;;;8.93;4.30;;;1.50;99.90;;;;;;5031513;28;20144;-56
2021/12/03 01:18:06;;;;;;;7.30;3.83;;;1.50;99.90;;;;;;5031459;28;20021;-55
2021/12/03 01:20:33;;;;;;;7.03;4.03;;;1.40;99.90;;;;;;5032762;28;20084;-56
2021/12/03 01:22:59;;;;;;;9.95;3.88;;;1.40;99.90;;;;;;5031475;28;20042;-55
2021/12/03 01:25:26;;;;;;;11.93;4.22;;;1.40;99.90;;;;;;5032590;28;20033;-56
2021/12/03 01:27:53;;;;;;;10.80;4.18;;;1.40;99.90;;;;;;5032668;28;20365;-56
2021/12/03 01:30:21;;;;;;;7.63;3.78;;;1.40;99.90;;;;;;5032717;28;20400;-54
2021/12/03 01:32:48;;;;;;;8.48;3.92;;;1.40;99.90;;;;;;5032475;28;20021;-52
2021/12/03 01:35:14;;;;;;;13.45;4.53;;;1.60;99.90;;;;;;5036207;28;20037;-56
2021/12/03 01:37:42;;;;;;;8.25;4.28;;;1.70;99.90;;;;;;5034999;28;20025;-56
2021/12/03 01:40:12;;;;;;;6.85;3.92;;;1.80;99.90;;;;;;5034952;28;20148;-50
2021/12/03 01:42:38;;;;;;;9.13;3.90;;;1.90;99.90;;;;;;5036083;28;20028;-56
2021/12/03 01:45:09;;;;;;;8.55;4.40;;;1.80;99.90;;;;;;5034728;28;20029;-56
2021/12/03 01:47:35;;;;;;;7.72;4.18;;;1.60;99.90;;;;;;5034721;28;20018;-56
2021/12/03 01:50:01;;;;;;;9.40;4.40;;;1.50;99.90;;;;;;5035577;28;20026;-54
2021/12/03 01:52:26;;;;;;;5.90;3.67;;;1.40;99.90;;;;;;5034887;28;20028;-53
2021/12/03 01:54:53;;;;;;;8.70;3.67;;;1.30;99.90;;;;;;5035524;28;20022;-51
2021/12/03 01:57:19;;;;;;;8.38;4.35;;;1.20;99.90;;;;;;5035810;28;20017;-53
2021/12/03 01:59:45;;;;;;;10.65;4.53;;;1.20;99.90;;;;;;5034477;28;20053;-50
2021/12/03 02:02:11;;;;;;;9.07;4.28;;;1.10;99.90;;;;;;5034736;28;20052;-55
2021/12/03 02:04:36;;;;;;;8.43;4.10;;;1.10;99.90;;;;;;5035680;28;20018;-51
2021/12/03 02:07:03;;;;;;;7.38;4.20;;;1.00;99.90;;;;;;5035138;28;20372;-53
2021/12/03 02:09:28;;;;;;;7.90;4.15;;;1.10;99.90;;;;;;5034687;28;20037;-55
2021/12/03 02:11:54;;;;;;;9.50;4.60;;;1.00;99.90;;;;;;5035500;28;20029;-56
2021/12/03 02:14:21;;;;;;;6.68;3.50;;;0.90;99.90;;;;;;5034454;28;20024;-56
2021/12/03 02:16:46;;;;;;;8.07;3.90;;;0.80;99.90;;;;;;5034214;28;20029;-55
2021/12/03 02:19:13;;;;;;;8.45;4.25;;;0.80;99.90;;;;;;5035350;28;20026;-54
2021/12/03 02:21:38;;;;;;;7.95;3.72;;;0.80;99.90;;;;;;5034085;28;20041;-55
2021/12/03 02:24:05;;;;;;;8.90;4.47;;;0.80;99.90;;;;;;5034118;28;20029;-56
2021/12/03 02:26:30;;;;;;;11.68;4.72;;;0.80;99.90;;;;;;5035249;28;20081;-53
2021/12/03 02:28:56;;;;;;;9.20;4.75;;;0.80;99.90;;;;;;5034274;28;20057;-56
2021/12/03 02:31:24;;;;;;;7.78;3.97;;;0.70;99.90;;;;;;5035305;28;20055;-53
2021/12/03 02:33:51;;;;;;;9.52;4.20;;;0.80;99.90;;;;;;5035249;28;20032;-52
2021/12/03 02:36:17;;;;;;;10.45;4.55;;;0.80;99.90;;;;;;5035214;28;20030;-50
2021/12/03 02:38:43;;;;;;;10.02;4.00;;;0.80;99.90;;;;;;5035507;28;20076;-51
2021/12/03 02:41:18;;;;;;;10.75;3.75;;;0.80;99.90;;;;;;5034946;28;20085;-51
2021/12/03 02:43:44;;;;;;;6.70;3.83;;;0.80;99.90;;;;;;5035018;28;20104;-50
2021/12/03 02:46:10;;;;;;;8.63;4.00;;;0.70;99.90;;;;;;5033498;28;20048;-52
2021/12/03 02:48:36;;;;;;;9.50;4.32;;;0.60;99.90;;;;;;5033618;28;20029;-50
2021/12/03 02:51:05;;;;;;;8.57;3.88;;;0.60;99.90;;;;;;5034971;28;20494;-53
2021/12/03 02:53:30;;;;;;;10.45;4.57;;;0.70;99.90;;;;;;5034603;28;20013;-56
2021/12/03 02:55:56;;;;;;;8.82;4.07;;;0.60;99.90;;;;;;5033772;28;20048;-54
2021/12/03 02:58:22;;;;;;;6.93;3.63;;;0.60;99.90;;;;;;5033973;28;20022;-56
2021/12/03 03:00:50;;;;;;;9.27;5.20;;;0.50;99.90;;;;;;5034638;28;20025;-53
2021/12/03 03:03:16;;;;;;;10.90;5.38;;;0.50;99.90;;;;;;5033202;28;20021;-56
2021/12/03 03:05:46;;;;;;;10.27;4.60;;;0.40;99.90;;;;;;5033988;28;20123;-53
2021/12/03 03:08:11;;;;;;;10.55;5.10;;;0.40;99.90;;;;;;5034480;28;20081;-53
2021/12/03 03:10:40;;;;;;;12.95;6.15;;;0.40;99.90;;;;;;5034461;28;20021;-50
2021/12/03 03:13:06;;;;;;;10.32;5.72;;;0.30;99.90;;;;;;5033145;28;20021;-55
2021/12/03 03:15:32;;;;;;;12.98;6.05;;;0.40;99.90;;;;;;5034309;28;20033;-52
2021/12/03 03:18:18;;;;;;;17.63;6.68;;;0.40;99.90;;;;;;5034593;28;20083;-51
2021/12/03 03:20:46;;;;;;;16.17;6.60;;;0.50;99.90;;;;;;5033561;28;20084;-52
2021/12/03 03:23:14;;;;;;;15.90;7.32;;;0.50;99.90;;;;;;5034149;28;20483;-56
2021/12/03 03:25:41;;;;;;;13.82;6.25;;;0.50;99.90;;;;;;5032789;28;20029;-55
2021/12/03 03:28:08;;;;;;;15.70;7.20;;;0.50;99.90;;;;;;5034060;28;20049;-56
2021/12/03 03:30:34;;;;;;;21.55;7.38;;;0.60;99.90;;;;;;5032702;28;20021;-56
2021/12/03 03:33:01;;;;;;;18.98;8.48;;;0.60;99.90;;;;;;5034114;28;20014;-53
2021/12/03 03:35:26;;;;;;;21.50;8.85;;;0.70;99.90;;;;;;5032663;28;20092;-56
2021/12/03 03:37:52;;;;;;;21.15;8.32;;;0.70;99.90;;;;;;5032732;28;20034;-55
2021/12/03 03:40:18;;;;;;;25.23;8.88;;;0.70;99.90;;;;;;5034145;28;20021;-56
2021/12/03 03:42:44;;;;;;;18.42;8.55;;;0.70;99.90;;;;;;5032492;28;20021;-56
2021/12/03 03:45:13;;;;;;;25.98;10.57;;;0.80;99.90;;;;;;5033089;28;20037;-51
2021/12/03 03:47:39;;;;;;;21.90;9.15;;;0.90;99.90;;;;;;5033856;28;20051;-52
2021/12/03 03:50:06;;;;;;;23.52;9.55;;;0.90;99.90;;;;;;5032777;28;20491;-49
2021/12/03 03:52:34;;;;;;;20.33;9.68;;;0.90;99.90;;;;;;5034105;28;20022;-54
2021/12/03 03:54:59;;;;;;;20.98;8.88;;;0.90;99.90;;;;;;5032521;28;20033;-50
2021/12/03 03:57:25;;;;;;;21.25;10.80;;;0.90;99.90;;;;;;5032038;28;20022;-50
2021/12/03 03:59:51;;;;;;;18.40;8.70;;;0.90;99.90;;;;;;5032593;28;20543;-51
2021/12/03 04:02:17;;;;;;;17.55;9.18;;;0.90;99.90;;;;;;5033437;28;20017;-49
2021/12/03 04:04:42;;;;;;;21.35;9.45;;;0.90;99.90;;;;;;5033028;28;20025;-50
2021/12/03 04:07:08;;;;;;;22.92;10.05;;;0.80;99.90;;;;;;5032429;28;20502;-51
2021/12/03 04:09:34;;;;;;;17.70;8.10;;;0.80;99.90;;;;;;5033467;28;20021;-49
2021/12/03 04:11:59;;;;;;;30.35;12.25;;;0.80;99.90;;;;;;5032709;28;20017;-49
2021/12/03 04:14:25;;;;;;;27.13;11.25;;;0.80;99.90;;;;;;5033339;28;20104;-50
2021/12/03 04:16:51;;;;;;;22.35;10.02;;;0.80;99.90;;;;;;5032372;28;20124;-49
2021/12/03 04:19:18;;;;;;;18.10;7.72;;;0.80;99.90;;;;;;5033309;28;20029;-49
2021/12/03 04:21:44;;;;;;;18.88;8.15;;;0.80;99.90;;;;;;5033621;28;20036;-50
2021/12/03 04:24:09;;;;;;;20.52;8.85;;;0.80;99.90;;;;;;5032119;28;20468;-49
2021/12/03 04:26:35;;;;;;;18.27;7.53;;;0.90;99.90;;;;;;5031910;28;20112;-53
2021/12/03 04:29:01;;;;;;;19.35;8.65;;;0.80;99.90;;;;;;5033032;28;20045;-52
2021/12/03 04:31:28;;;;;;;19.65;8.55;;;0.80;99.90;;;;;;5033263;28;20052;-51
2021/12/03 04:33:55;;;;;;;16.98;8.10;;;0.80;99.90;;;;;;5033077;28;20022;-49
2021/12/03 04:36:21;;;;;;;19.00;8.75;;;0.70;99.90;;;;;;5033147;28;20048;-51
2021/12/03 04:38:47;;;;;;;22.55;9.68;;;0.70;99.90;;;;;;5031865;28;20404;-49
2021/12/03 04:41:13;;;;;;;23.02;8.32;;;0.70;99.90;;;;;;5033080;28;20053;-50
2021/12/03 04:43:39;;;;;;;27.58;11.52;;;0.70;99.90;;;;;;5031783;28;20026;-51
2021/12/03 04:46:05;;;;;;;24.00;10.07;;;0.80;99.90;;;;;;5031732;28;20036;-49
2021/12/03 04:48:31;;;;;;;19.20;8.30;;;0.80;99.90;;;;;;5033083;28;20097;-50
2021/12/03 04:50:56;;;;;;;20.70;8.35;;;0.80;99.90;;;;;;5033288;28;20109;-52
2021/12/03 04:53:22;;;;;;;19.33;8.75;;;0.70;99.90;;;;;;5031626;28;20018;-52
2021/12/03 04:55:49;;;;;;;22.02;8.30;;;0.80;99.90;;;;;;5032914;28;20167;-51
2021/12/03 04:58:16;;;;;;;19.48;9.60;;;0.90;99.90;;;;;;5033257;28;20033;-52
2021/12/03 05:00:46;;;;;;;21.83;8.30;;;0.90;99.90;;;;;;5031694;28;20033;-51
2021/12/03 05:03:12;;;;;;;19.30;8.40;;;1.10;99.90;;;;;;5032850;28;20034;-49
2021/12/03 05:05:44;;;;;;;19.50;8.80;;;1.20;99.90;;;;;;5031615;28;20028;-50
2021/12/03 05:08:11;;;;;;;18.17;8.43;;;1.20;99.90;;;;;;5032979;28;20510;-54
2021/12/03 05:10:40;;;;;;;18.88;8.25;;;1.10;99.90;;;;;;5036932;28;20018;-52
2021/12/03 05:13:09;;;;;;;23.60;9.10;;;1.10;99.90;;;;;;5035303;28;20472;-50
2021/12/03 05:15:36;;;;;;;18.23;8.10;;;1.10;99.90;;;;;;5035364;28;20034;-50
2021/12/03 05:18:03;;;;;;;17.42;7.90;;;1.00;99.90;;;;;;5035164;28;20087;-52
2021/12/03 05:20:29;;;;;;;22.23;8.63;;;0.90;99.90;;;;;;5036451;28;20022;-53
2021/12/03 05:22:55;;;;;;;17.50;8.00;;;1.00;99.90;;;;;;5035135;28;20040;-54
2021/12/03 05:25:21;;;;;;;20.15;7.88;;;1.10;99.90;;;;;;5035419;28;20033;-55
2021/12/03 05:27:48;;;;;;;18.42;8.93;;;1.10;99.90;;;;;;5035323;28;20480;-54
2021/12/03 05:30:14;;;;;;;17.42;8.10;;;1.30;99.90;;;;;;5035162;28;20021;-54
2021/12/03 05:32:40;;;;;;;17.02;8.00;;;1.60;99.90;;;;;;5036228;28;20524;-54
2021/12/03 05:35:07;;;;;;;19.55;8.15;;;2.00;99.90;;;;;;5036267;28;20057;-56
2021/12/03 05:37:33;;;;;;;14.43;7.90;;;2.10;99.90;;;;;;5035179;28;20472;-57
2021/12/03 05:39:59;;;;;;;14.65;6.90;;;2.10;99.90;;;;;;5035286;28;20025;-55
2021/12/03 05:42:25;;;;;;;19.70;7.28;;;2.20;99.90;;;;;;5035185;28;20014;-56
2021/12/03 05:44:51;;;;;;;14.15;6.72;;;2.20;99.90;;;;;;5035755;28;20028;-55
2021/12/03 05:47:16;;;;;;;12.20;6.10;;;2.30;99.90;;;;;;5034898;28;20033;-55
2021/12/03 05:49:42;;;;;;;14.13;6.00;;;2.60;99.90;;;;;;5034763;28;20391;-54
2021/12/03 05:52:08;;;;;;;10.82;5.53;;;2.90;99.90;;;;;;5036040;28;20040;-55
2021/12/03 05:54:33;;;;;;;14.18;5.45;;;3.30;99.90;;;;;;5036089;28;20029;-56
2021/12/03 05:56:59;;;;;;;14.85;5.95;;;3.20;99.90;;;;;;5034728;28;20068;-54
2021/12/03 05:59:24;;;;;;;13.35;6.13;;;3.40;99.90;;;;;;5034673;28;20159;-54
2021/12/03 06:01:50;;;;;;;10.40;5.07;;;3.50;99.90;;;;;;5035945;28;20025;-52
2021/12/03 06:04:16;;;;;;;13.65;5.38;;;3.70;99.90;;;;;;5035725;28;20479;-55
2021/12/03 06:06:42;;;;;;;11.85;5.60;;;3.70;99.90;;;;;;5034540;28;20025;-52
2021/12/03 06:09:07;;;;;;;9.35;4.97;;;3.90;99.90;;;;;;5034782;28;20032;-54
2021/12/03 06:11:33;;;;;;;9.25;5.47;;;4.00;99.90;;;;;;5035673;28;20108;-56
2021/12/03 06:13:59;;;;;;;9.38;4.82;;;4.00;99.90;;;;;;5034734;28;20064;-56
2021/12/03 06:16:24;;;;;;;9.70;5.15;;;3.90;99.90;;;;;;5035624;28;20036;-55
2021/12/03 06:18:50;;;;;;;9.30;5.13;;;3.60;99.90;;;;;;5033956;28;20029;-55
2021/12/03 06:21:17;;;;;;;13.25;5.57;;;3.20;99.90;;;;;;5034835;28;20032;-55
2021/12/03 06:23:43;;;;;;;14.23;6.45;;;3.00;99.90;;;;;;5035110;28;20033;-54
2021/12/03 06:26:10;;;;;;;12.20;6.35;;;2.80;99.90;;;;;;5035395;28;20036;-55
2021/12/03 06:28:38;;;;;;;13.85;5.75;;;2.70;99.90;;;;;;5035382;28;20040;-51
2021/12/03 06:31:04;;;;;;;13.13;6.47;;;2.60;99.90;;;;;;5034501;28;20075;-51
2021/12/03 06:33:30;;;;;;;12.73;6.45;;;2.80;99.90;;;;;;5035198;28;20087;-55
2021/12/03 06:35:56;;;;;;;11.48;5.03;;;2.90;99.90;;;;;;5035207;28;20025;-55
2021/12/03 06:38:22;;;;;;;12.23;5.72;;;3.00;99.90;;;;;;5035221;28;20029;-56
2021/12/03 06:40:50;;;;;;;13.43;5.65;;;3.00;99.90;;;;;;5035359;28;20147;-54
2021/12/03 06:43:15;;;;;;;10.93;5.15;;;3.10;99.90;;;;;;5033850;28;20124;-54
2021/12/03 06:45:41;;;;;;;11.52;5.57;;;3.10;99.90;;;;;;5034908;28;20109;-56
2021/12/03 06:48:07;;;;;;;13.38;4.55;;;3.20;99.90;;;;;;5035211;28;20028;-55
2021/12/03 06:50:33;;;;;;;9.80;5.15;;;3.30;99.90;;;;;;5033745;28;20021;-57
2021/12/03 06:53:23;;;;;;;9.55;4.03;;;3.20;99.90;;;;;;5035121;28;20096;-55
2021/12/03 06:55:47;;;;;;;12.63;5.55;;;3.50;99.90;;;;;;5034740;28;20041;-52
2021/12/03 06:58:15;;;;;;;10.35;5.05;;;3.50;99.90;;;;;;5033545;28;20022;-54
2021/12/03 07:00:42;;;;;;;11.63;4.47;;;3.40;99.90;;;;;;5033602;28;20029;-51
2021/12/03 07:03:07;;;;;;;11.95;4.80;;;3.50;99.90;;;;;;5033839;28;20030;-53
2021/12/03 07:05:33;;;;;;;12.18;4.90;;;3.50;99.90;;;;;;5034725;28;20032;-55
2021/12/03 07:07:59;;;;;;;12.82;5.57;;;3.70;99.90;;;;;;5034222;28;20025;-56
2021/12/03 07:10:25;;;;;;;12.85;5.05;;;3.80;99.90;;;;;;5033487;28;20021;-55
2021/12/03 07:12:50;;;;;;;11.05;4.78;;;3.60;99.90;;;;;;5033205;28;20021;-53
2021/12/03 07:15:16;;;;;;;10.32;5.10;;;3.50;99.90;;;;;;5033650;28;20028;-53
2021/12/03 07:17:42;;;;;;;14.50;5.03;;;3.40;99.90;;;;;;5033320;28;20133;-53
2021/12/03 07:20:09;;;;;;;7.70;4.68;;;3.30;99.90;;;;;;5034301;28;20022;-56
2021/12/03 07:22:36;;;;;;;7.65;4.63;;;3.50;99.90;;;;;;5034213;28;20105;-53
2021/12/03 07:25:03;;;;;;;10.43;4.68;;;3.40;99.90;;;;;;5034228;28;20021;-56
2021/12/03 07:27:29;;;;;;;15.90;4.88;;;3.70;99.90;;;;;;5034405;28;20419;-51
2021/12/03 07:29:55;;;;;;;15.05;4.97;;;3.70;99.90;;;;;;5032588;28;20052;-56
2021/12/03 07:32:22;;;;;;;14.80;4.80;;;3.90;99.90;;;;;;5033591;28;20044;-56
2021/12/03 07:34:49;;;;;;;10.00;4.55;;;4.10;99.90;;;;;;5032699;28;20025;-55
2021/12/03 07:37:15;;;;;;;12.50;4.70;;;4.30;99.90;;;;;;5032704;28;20026;-56
2021/12/03 07:39:41;;;;;;;11.02;4.70;;;4.30;99.90;;;;;;5032500;28;20120;-57
2021/12/03 07:42:07;;;;;;;12.15;4.60;;;4.30;99.90;;;;;;5032475;28;20021;-54
2021/12/03 07:44:33;;;;;;;6.95;3.70;;;4.40;99.90;;;;;;5032530;28;20079;-58
2021/12/03 07:46:59;;;;;;;8.60;4.28;;;5.00;99.90;;;;;;5033738;28;20030;-57
2021/12/03 07:49:26;;;;;;;9.65;4.10;;;5.70;99.90;;;;;;5032771;28;20142;-55
2021/12/03 07:51:52;;;;;;;7.13;3.63;;;5.90;99.90;;;;;;5033619;28;20021;-56
2021/12/03 07:54:18;;;;;;;9.00;4.13;;;6.50;99.90;;;;;;5032721;28;20029;-57
2021/12/03 07:56:45;;;;;;;5.35;3.08;;;7.20;99.90;;;;;;5032382;28;20030;-55
2021/12/03 07:59:10;;;;;;;7.90;4.05;;;7.70;99.90;;;;;;5033589;28;20029;-56
2021/12/03 08:01:36;;;;;;;9.23;3.83;;;7.80;99.90;;;;;;5033867;28;20021;-56
2021/12/03 08:04:02;;;;;;;9.65;4.20;;;7.70;99.90;;;;;;5032254;28;20135;-58
2021/12/03 08:06:27;;;;;;;9.20;4.22;;;7.30;99.90;;;;;;5033052;28;20021;-56
2021/12/03 08:08:53;;;;;;;5.78;3.40;;;7.10;99.90;;;;;;5033436;28;20022;-55
2021/12/03 08:11:19;;;;;;;6.78;3.95;;;7.10;99.90;;;;;;5033489;28;20103;-57
2021/12/03 08:13:44;;;;;;;9.60;3.60;;;7.10;99.90;;;;;;5033312;28;20017;-54
2021/12/03 08:16:10;;;;;;;5.70;3.95;;;7.00;99.90;;;;;;5032940;28;20444;-55
2021/12/03 08:18:36;;;;;;;7.18;3.58;;;6.60;99.90;;;;;;5033538;28;20026;-53
2021/12/03 08:21:04;;;;;;;8.38;3.67;;;6.30;99.90;;;;;;5032000;28;20021;-55
2021/12/03 08:23:30;;;;;;;9.48;3.88;;;6.10;99.90;;;;;;5032180;28;20088;-57
2021/12/03 08:25:57;;;;;;;6.40;3.95;;;6.10;99.90;;;;;;5033142;28;20057;-53
2021/12/03 08:28:22;;;;;;;9.88;3.97;;;6.50;99.90;;;;;;5033109;28;20033;-58
2021/12/03 08:30:48;;;;;;;11.52;4.13;;;6.40;99.90;;;;;;5032047;28;20022;-55
2021/12/03 08:33:14;;;;;;;9.98;4.47;;;6.50;99.90;;;;;;5031803;28;20029;-56
2021/12/03 08:35:43;;;;;;;8.43;3.88;;;6.50;99.90;;;;;;5032121;28;20119;-53
2021/12/03 08:38:09;;;;;;;8.80;3.97;;;6.30;99.90;;;;;;5033404;28;20029;-52
2021/12/03 08:40:35;;;;;;;6.70;4.05;;;6.40;99.90;;;;;;5031886;28;20396;-57
2021/12/03 08:43:01;;;;;;;11.73;4.15;;;6.40;99.90;;;;;;5036066;28;20028;-55
2021/12/03 08:45:26;;;;;;;8.35;4.55;;;6.20;99.90;;;;;;5037082;28;20040;-53
2021/12/03 08:48:02;;;;;;;7.85;4.55;;;6.30;99.90;;;;;;5037000;28;20472;-53
2021/12/03 08:50:30;;;;;;;7.07;4.10;;;6.10;99.90;;;;;;5036394;28;20022;-56
2021/12/03 08:55:28;;;;;;;11.63;5.10;;;6.00;99.90;;;;;;5037320;28;20025;-55
2021/12/03 08:57:54;;;;;;;7.75;3.90;;;6.10;99.90;;;;;;5036809;28;20071;-56
2021/12/03 09:00:20;;;;;;;8.90;3.53;;;6.10;99.90;;;;;;5036836;28;20032;-58
2021/12/03 09:02:47;;;;;;;9.65;4.35;;;6.20;99.90;;;;;;5035405;28;20021;-55
2021/12/03 09:05:13;;;;;;;8.95;4.00;;;6.00;99.90;;;;;;5036749;28;20053;-59
2021/12/03 09:07:39;;;;;;;9.73;4.25;;;5.90;99.90;;;;;;5036840;28;20076;-51
2021/12/03 09:10:10;;;;;;;9.63;5.10;;;6.00;99.90;;;;;;5035562;28;20017;-52
2021/12/03 09:12:36;;;;;;;10.20;5.30;;;5.70;99.90;;;;;;5037260;28;20056;-52
2021/12/03 09:15:06;;;;;;;10.77;6.13;;;5.70;99.90;;;;;;5036624;28;20022;-52
2021/12/03 09:17:38;;;;;;;13.52;6.78;;;5.70;99.90;;;;;;5036622;28;20026;-51
2021/12/03 09:22:51;;;;;;;13.98;6.22;;;5.20;99.90;;;;;;5036705;28;20030;-48
2021/12/03 09:25:23;;;;;;;10.45;4.78;;;5.00;99.90;;;;;;5036588;28;20025;-52
2021/12/03 09:27:49;;;;;;;11.07;4.78;;;5.00;99.90;;;;;;5036756;28;20022;-51
2021/12/03 09:30:16;;;;;;;10.88;4.30;;;5.00;99.90;;;;;;5036452;28;20021;-51
2021/12/03 09:32:47;;;;;;;9.73;3.78;;;5.00;99.90;;;;;;5035052;28;20084;-50
2021/12/03 09:35:13;;;;;;;11.65;3.80;;;5.00;99.90;;;;;;5035682;28;20087;-54
2021/12/03 09:37:39;;;;;;;10.93;3.22;;;5.10;99.90;;;;;;5035075;28;20022;-50
2021/12/03 09:40:08;;;;;;;13.60;3.20;;;5.30;99.90;;;;;;5035138;28;20021;-49
2021/12/03 09:42:37;;;;;;;5.40;2.58;;;5.40;99.90;;;;;;5034870;28;20021;-49
2021/12/03 09:45:04;;;;;;;8.82;2.63;;;5.60;99.90;;;;;;5034835;28;20017;-49
2021/12/03 09:47:30;;;;;;;8.45;2.85;;;5.70;99.90;;;;;;5035965;28;20033;-50
2021/12/03 09:49:57;;;;;;;6.15;2.58;;;5.60;99.90;;;;;;5034895;28;20124;-51
2021/12/03 09:52:30;;;;;;;9.73;3.17;;;5.60;99.90;;;;;;5035014;28;20026;-51
2021/12/03 09:55:08;;;;;;;11.60;3.00;;;5.50;99.90;;;;;;5035177;28;20079;-49
2021/12/03 09:57:42;;;;;;;6.72;3.03;;;5.50;99.90;;;;;;5035947;28;20022;-50
2021/12/03 10:16:00;;;;;;;8.98;2.67;;;6.00;99.90;;;;;;5035900;28;20026;-48
2021/12/03 10:18:36;;;;;;;4.53;1.98;;;6.10;99.90;;;;;;5034309;28;20021;-48
2021/12/03 10:21:23;;;;;;;6.10;2.17;;;6.10;99.90;;;;;;5034255;28;20025;-51
2021/12/03 10:24:26;;;;;;;6.38;1.92;;;6.20;99.90;;;;;;5034978;28;20044;-49
2021/12/03 10:29:42;;;;;;;5.22;2.03;;;6.50;99.90;;;;;;5035606;28;20049;-53
2021/12/03 10:32:35;;;;;;;9.93;2.38;;;6.60;99.90;;;;;;5035421;28;20029;-52
2021/12/03 10:43:12;;;;;;;4.88;1.98;;;6.90;99.90;;;;;;5035019;28;20014;-51
2021/12/03 10:45:48;;;;;;;6.07;2.13;;;7.00;99.90;;;;;;5034036;28;20025;-49
2021/12/03 10:48:29;;;;;;;4.07;1.50;;;6.90;99.90;;;;;;5035247;28;20032;-50
2021/12/03 10:51:12;;;;;;;7.40;2.10;;;6.90;99.90;;;;;;5034206;28;20486;-50
2021/12/03 10:53:44;;;;;;;6.68;1.60;;;7.10;99.90;;;;;;5034772;28;20020;-51
2021/12/03 10:56:50;;;;;;;6.65;1.63;;;7.10;99.90;;;;;;5033657;28;20026;-50
2021/12/03 11:25:12;;;;;;;9.85;2.20;;;6.60;99.90;;;;;;5034548;28;20063;-55
2021/12/03 11:27:44;;;;;;;4.82;2.38;;;6.70;99.90;;;;;;5034022;28;20175;-53
2021/12/03 12:15:18;;;;;;;7.22;2.15;;;6.50;99.90;;;;;;5033435;28;20021;-54
2021/12/03 12:30:34;;;;;;;11.70;2.53;;;6.50;99.90;;;;;;5033210;28;20049;-55
2021/12/03 12:47:17;;;;;;;5.43;2.22;;;6.70;99.90;;;;;;5033337;28;20026;-52
2021/12/03 13:56:35;;;;;;;3.47;2.05;;;7.00;99.90;;;;;;5036351;28;20037;-53
2021/12/03 14:00:09;;;;;;;5.95;2.65;;;7.00;99.90;;;;;;5036176;28;20024;-49
2021/12/03 14:03:04;;;;;;;3.15;2.20;;;6.70;99.90;;;;;;5035806;28;20063;-49
2021/12/03 14:31:34;;;;;;;14.00;2.92;;;6.30;99.90;;;;;;5035632;28;20060;-52
2021/12/03 14:49:05;;;;;;;5.10;2.90;;;6.50;99.90;;;;;;5035382;28;20113;-48
2021/12/03 14:51:49;;;;;;;11.73;2.95;;;6.20;99.90;;;;;;5035270;28;20022;-53
2021/12/03 14:54:45;;;;;;;6.53;3.00;;;6.50;99.90;;;;;;5034828;28;20024;-51
2021/12/03 15:08:24;;;;;;;10.88;4.78;;;6.30;99.90;;;;;;5034952;28;20423;-51
2021/12/03 15:29:35;;;;;;;10.93;4.20;;;5.80;99.90;;;;;;5034520;28;20037;-49
2021/12/03 15:39:44;;;;;;;7.60;3.80;;;5.60;99.90;;;;;;5034616;28;20029;-50
2021/12/03 15:56:09;;;;;;;9.25;4.03;;;5.60;99.90;;;;;;5033900;28;20017;-53
2021/12/03 16:10:03;;;;;;;6.47;3.58;;;5.50;99.90;;;;;;5034167;28;20032;-51
2021/12/03 16:13:09;;;;;;;10.35;3.72;;;5.50;99.90;;;;;;5032194;28;20395;-49
2021/12/03 16:18:31;;;;;;;10.00;5.03;;;5.30;99.90;;;;;;5033888;28;20112;-51
2021/12/03 16:53:04;;;;;;;8.90;4.65;;;5.40;99.90;;;;;;5033843;28;20026;-50
2021/12/03 16:55:30;;;;;;;8.45;4.32;;;5.20;99.90;;;;;;5032994;28;20051;-51
2021/12/03 16:57:56;;;;;;;10.68;4.43;;;5.30;99.90;;;;;;5031774;28;20018;-52
2021/12/03 17:01:01;;;;;;;12.43;4.90;;;5.20;99.90;;;;;;5032129;28;20391;-51
2021/12/03 17:03:24;;;;;;;10.95;4.43;;;5.10;99.90;;;;;;5032143;28;20029;-52
2021/12/03 17:54:10;;;;;;;9.13;4.28;;;3.90;99.90;;;;;;5036520;28;20032;-49
2021/12/03 17:56:42;;;;;;;8.02;4.05;;;3.90;99.90;;;;;;5036269;28;20021;-49
2021/12/03 18:01:39;;;;;;;9.38;3.95;;;4.40;99.90;;;;;;5036036;28;19909;-50
2021/12/03 18:04:22;;;;;;;9.77;3.95;;;4.60;99.90;;;;;;5034503;28;20087;-50
2021/12/03 18:55:33;;;;;;;8.07;4.00;;;4.50;99.90;;;;;;5034958;28;20104;-49
2021/12/03 18:58:02;;;;;;;8.35;3.72;;;4.60;99.90;;;;;;5033682;28;20029;-52
2021/12/03 19:00:31;;;;;;;6.65;3.30;;;4.70;99.90;;;;;;5033495;28;20080;-54
2021/12/03 19:02:58;;;;;;;6.25;3.10;;;4.70;99.90;;;;;;5034729;28;20025;-52
2021/12/03 19:10:30;;;;;;;12.43;4.28;;;4.40;99.90;;;;;;5034987;28;20022;-57
2021/12/03 19:13:03;;;;;;;9.82;4.32;;;4.70;99.90;;;;;;5033174;28;20029;-58
2021/12/03 19:15:30;;;;;;;8.48;4.22;;;4.60;99.90;;;;;;5034506;28;20025;-55
2021/12/03 19:18:00;;;;;;;8.48;3.42;;;4.50;99.90;;;;;;5033206;28;20056;-56
2021/12/03 19:20:28;;;;;;;5.45;3.40;;;4.40;99.90;;;;;;5033135;28;20491;-52
2021/12/03 19:22:53;;;;;;;7.85;3.30;;;4.40;99.90;;;;;;5033076;28;20037;-52
2021/12/03 19:25:19;;;;;;;6.95;3.97;;;4.30;99.90;;;;;;5033135;28;20025;-59
2021/12/03 19:27:45;;;;;;;7.18;3.72;;;4.20;99.90;;;;;;5033367;28;20026;-58
2021/12/03 19:30:15;;;;;;;6.50;3.97;;;4.00;99.90;;;;;;5034198;28;20032;-59
2021/12/03 19:32:41;;;;;;;7.53;3.55;;;4.10;99.90;;;;;;5034385;28;20078;-56
2021/12/03 19:35:08;;;;;;;5.22;2.97;;;4.10;99.90;;;;;;5034386;28;20021;-59
2021/12/03 19:37:35;;;;;;;8.98;3.75;;;4.30;99.90;;;;;;5034410;28;20032;-58
2021/12/03 19:40:04;;;;;;;9.30;4.82;;;4.50;99.90;;;;;;5034094;28;20025;-58
2021/12/03 19:42:38;;;;;;;6.70;3.72;;;4.30;99.90;;;;;;5032652;28;20029;-57
2021/12/03 19:45:07;;;;;;;12.98;3.97;;;4.30;99.90;;;;;;5033558;28;20164;-56
2021/12/03 19:52:41;;;;;;;8.43;4.57;;;4.20;99.90;;;;;;5034059;28;20053;-57
2021/12/03 19:55:08;;;;;;;10.35;4.03;;;4.10;99.90;;;;;;5032464;28;20025;-57
2021/12/03 19:57:33;;;;;;;12.05;3.60;;;4.00;99.90;;;;;;5033738;28;20030;-53
2021/12/03 19:59:59;;;;;;;8.75;3.35;;;4.20;99.90;;;;;;5032373;28;20021;-57
2021/12/03 20:02:25;;;;;;;7.80;3.72;;;4.30;99.90;;;;;;5032372;28;20026;-57
2021/12/03 20:04:50;;;;;;;5.88;3.25;;;4.10;99.90;;;;;;5033710;28;20022;-51
2021/12/03 20:07:16;;;;;;;6.43;4.15;;;4.40;99.90;;;;;;5034077;28;20060;-54
2021/12/03 20:09:58;;;;;;;6.07;3.40;;;4.40;99.90;;;;;;5033898;28;20021;-54
2021/12/03 20:12:24;;;;;;;8.57;4.07;;;4.70;99.90;;;;;;5032280;28;20029;-51
2021/12/03 20:14:51;;;;;;;6.88;3.55;;;4.70;99.90;;;;;;5032203;28;20104;-52
2021/12/03 20:17:26;;;;;;;5.82;3.70;;;4.80;99.90;;;;;;5033460;28;20024;-57
2021/12/03 20:19:53;;;;;;;6.55;3.72;;;4.80;99.90;;;;;;5032113;28;20064;-58
2021/12/03 20:22:25;;;;;;;7.60;3.55;;;4.70;99.90;;;;;;5032071;28;20033;-57
2021/12/03 20:25:18;;;;;;;8.70;3.15;;;4.80;99.90;;;;;;5033671;28;20026;-58